Portada
METAR-TAF:

METAR-TAF

Aeroports :

Trent Lott International Airport

Pascagoula, Mississipí, Estats Units d'Amèrica

latitud: 30-27-49N, longitud: 088-31-55W, altitud: 5 m

Observació

L'informe es va fer fa 47 minuts, a les 06:53 UTC
Vent calma
Temperatura -1°C
Humitat 69%
Pressió 1029 hPa
Visibilitat: 16.1 km
Cel clar

METAR: KPQL 220653Z AUTO 00000KT 10SM CLR M01/M06 A3040 RMK AO2 SLP296 T10111056

Hora: 01:40 (07:40 UTC)


TAF: manca

Observacions i pronòstics meteorològics de més de 4000 aeroports (METAR i TAF).

Les estacions disponibles són els punts grocs i vermells al mapa.

Posi el ratolí al punt desitjat per veure el nom de l'estació.

Feu clic per veure les observacions i els pronòstics meteorològics.

Per canviar el mapa: feu clic els botons verds amb una creu de color negre per apropar; al botó verd amb un guió per allunyar la imatge; o en les fletxes verdes per a mapes adjacents.


METAR-TAF: